Airfield :
LOGIN :

Register | Disclaimer

   EN    FR    IT 

 










Legend :    VFR   Marginal VFR   IFR   Intensive IFR   Very Intensive IFR
Visi :
Ceiling :
>= 8 km
>= 3000ft
5 to 8 km
1000 to 3000 ft
1500m to 5 km
500 to 1000 ft
800 to 1500m
200 to 500 ft
< 800m
< 200 ft
Symbols :   Thunderstorms  Fog  Heavy snow  Heavy precipitations  Wind > 20 kt
SIGMETs :     Misc.  Thunderstorms  Icing  Turbulence  Mountain Waves  Volcanic Ashes







- Airport Elevation : 135 ft
- IATA code : TLV


LLBG - Ben Gurion

CURRENT METAR :
  • 180620Z 19006KT 9999 BKN028 29/21 Q1007 NOSIG

EXPIRED METARs :
  • 180550Z 19008KT 9999 SCT026 28/21 Q1007 NOSIG
  • 180520Z 19008KT 9999 FEW025 28/21 Q1007 NOSIG
  • 180450Z 19009KT 9999 FEW025 27/22 Q1007 NOSIG
  • 180420Z 19006KT 9999 FEW024 26/21 Q1007 NOSIG
  • 180350Z 17006KT 9999 FEW023 26/21 Q1007 NOSIG

TAF TAF LLBG
Valid from the 18 at 06:00 until the 19 at 06:00 UTC


180504Z 1806/1906 23006KT 9999 SCT030
BECMG 1807/1809 28010KT FEW035
BECMG 1815/1817 22004KT SCT025
BECMG 1822/1824 16004KT
TEMPO 1900/1906 BKN030 TX31/1811Z TN24/1903Z
No reported NOTAMs for that airfield.



MET'MAP, your aeronautical weather chart ! - Copyright ORBIFLY December 2007 - Disclaimer

ORBIFLY MET'MAP TEAM :

Programming & Development : Alexandra Zaïnal
Concept & Development : Baudouin d'Aumeries
Co-Development & Prog : Marc-Olivier Méhu
Technical & hardware support : Manuel Goepfert

Contact : metmap@orbifly.com




SOURCES & CREDITS :

   NOAA